createdAt,value
2019-05-11T07:31:55.581Z,14.271545
2019-05-11T07:32:35.742Z,14.150696
2019-05-11T07:33:46.348Z,13.989563
2019-05-11T07:35:56.022Z,13.586731
2019-05-11T07:37:55.885Z,13.294678
2019-05-11T07:38:55.773Z,13.113403
2019-05-11T07:39:55.729Z,13.002625
2019-05-11T07:41:06.433Z,12.932129
2019-05-11T07:42:05.532Z,12.861633
2019-05-11T07:43:16.298Z,12.781067
2019-05-11T07:44:16.796Z,12.720642
2019-05-11T07:45:15.782Z,12.650146
2019-05-11T07:46:26.438Z,12.640076
2019-05-11T07:47:25.566Z,12.559509
2019-05-11T07:48:25.578Z,12.529297
2019-05-11T07:49:26.996Z,12.519226
2019-05-11T07:50:15.731Z,12.529297
2019-05-11T07:51:26.389Z,12.489014
2019-05-11T07:52:26.436Z,12.418518
2019-05-11T07:53:25.571Z,12.44873
2019-05-11T07:54:36.140Z,12.388306
2019-05-11T07:57:36.398Z,12.307739
2019-05-11T07:58:55.716Z,12.277527
2019-05-11T07:59:55.623Z,12.267456
2019-05-11T08:01:06.203Z,12.207031
2019-05-11T08:03:15.854Z,12.237244
2019-05-11T08:04:26.463Z,12.277527
2019-05-11T08:05:26.063Z,12.237244
2019-05-11T08:06:36.723Z,12.267456
2019-05-11T08:07:35.569Z,12.287598
2019-05-11T08:08:26.094Z,12.307739
2019-05-11T08:09:25.475Z,12.337952
2019-05-11T08:10:25.611Z,12.368164
2019-05-11T08:11:28.757Z,12.388306
2019-05-11T08:12:16.871Z,12.458801
2019-05-11T08:14:15.956Z,12.539368
2019-05-11T08:15:09.746Z,12.559509
2019-05-11T08:16:05.996Z,12.599792
2019-05-11T08:17:06.057Z,12.650146
2019-05-11T08:18:16.604Z,12.670288
2019-05-11T08:19:15.772Z,12.7005
2019-05-11T08:20:06.169Z,12.710571
2019-05-11T08:22:06.321Z,12.740784
2019-05-11T08:23:06.821Z,12.740784
2019-05-11T08:24:06.807Z,12.740784
2019-05-11T08:25:06.796Z,12.740784
2019-05-11T08:25:55.799Z,12.720642
2019-05-11T08:26:55.851Z,12.680359
2019-05-11T08:27:56.481Z,12.680359
2019-05-11T08:28:55.552Z,12.670288
2019-05-11T08:30:06.227Z,12.680359
2019-05-11T08:30:55.529Z,12.670288
2019-05-11T08:31:55.653Z,12.680359
2019-05-11T08:32:46.818Z,12.710571
2019-05-11T08:33:45.800Z,12.740784
2019-05-11T08:34:46.862Z,12.720642
2019-05-11T08:35:45.807Z,12.720642
2019-05-11T08:36:35.507Z,12.750854
2019-05-11T08:38:45.957Z,12.750854
2019-05-11T08:39:46.002Z,12.750854
2019-05-11T08:40:56.667Z,12.7005
2019-05-11T08:41:56.683Z,12.670288
2019-05-11T08:42:45.800Z,12.7005
2019-05-11T08:43:56.317Z,12.720642
2019-05-11T08:45:55.571Z,12.770996
2019-05-11T08:46:55.953Z,12.740784
2019-05-11T08:47:55.588Z,12.750854
2019-05-11T08:48:57.137Z,12.770996
2019-05-11T08:49:56.646Z,12.781067
2019-05-11T08:50:55.839Z,12.750854
2019-05-11T08:52:45.534Z,12.770996
2019-05-11T08:53:45.747Z,12.791138
2019-05-11T08:55:46.302Z,12.82135
2019-05-11T08:56:46.346Z,12.82135
2019-05-11T08:58:25.460Z,12.781067
2019-05-11T08:59:25.472Z,12.770996
2019-05-11T09:00:36.571Z,12.750854
2019-05-11T09:01:36.865Z,12.770996
2019-05-11T09:02:36.099Z,12.680359
2019-05-11T09:03:36.403Z,12.650146
2019-05-11T09:04:38.976Z,12.599792
2019-05-11T09:05:36.084Z,12.599792
2019-05-11T09:06:35.452Z,12.599792
2019-05-11T09:08:46.854Z,12.56958
2019-05-11T09:09:46.129Z,12.539368
2019-05-11T09:11:56.380Z,12.56958
2019-05-11T09:12:56.699Z,12.56958
2019-05-11T09:14:45.638Z,12.539368
2019-05-11T09:15:56.547Z,12.519226
2019-05-11T09:18:45.685Z,12.468872
2019-05-11T09:19:45.814Z,12.468872
2019-05-11T09:20:46.422Z,12.499084
2019-05-11T09:22:35.834Z,12.599792
2019-05-11T09:26:26.314Z,12.750854
2019-05-11T09:27:26.460Z,12.82135
2019-05-11T09:28:15.706Z,12.861633
2019-05-11T09:29:15.770Z,12.922058
2019-05-11T09:30:26.617Z,12.932129
2019-05-11T09:31:25.771Z,12.952271
2019-05-11T09:32:26.148Z,12.952271
2019-05-11T09:33:26.180Z,12.952271
2019-05-11T09:34:26.543Z,12.962341
2019-05-11T09:35:26.938Z,12.952271
2019-05-11T09:36:26.334Z,12.972412
2019-05-11T09:37:25.509Z,13.012695
2019-05-11T09:39:15.482Z,12.972412
2019-05-11T09:40:15.933Z,12.972412
2019-05-11T09:41:05.575Z,13.032837
2019-05-11T09:42:05.485Z,13.07312
2019-05-11T09:43:56.324Z,13.173828
2019-05-11T09:44:55.520Z,13.173828
2019-05-11T09:45:55.927Z,13.153687
2019-05-11T09:47:45.532Z,13.19397
2019-05-11T09:48:56.629Z,13.153687
2019-05-11T09:49:55.935Z,13.083191
2019-05-11T09:51:56.534Z,12.932129
2019-05-11T09:52:55.838Z,12.901917
2019-05-11T09:55:06.330Z,12.750854
2019-05-11T09:56:05.698Z,12.710571
2019-05-11T09:57:06.022Z,12.7005
2019-05-11T09:58:06.176Z,12.720642
2019-05-11T09:59:06.406Z,12.720642
2019-05-11T09:59:56.036Z,12.750854
2019-05-11T10:00:56.291Z,12.781067
2019-05-11T10:01:56.524Z,12.781067
2019-05-11T10:03:56.223Z,12.750854
2019-05-11T10:04:55.607Z,12.740784
2019-05-11T10:05:55.711Z,12.7005
2019-05-11T10:07:06.691Z,12.650146
2019-05-11T10:08:55.587Z,12.559509
2019-05-11T10:10:06.668Z,12.529297
2019-05-11T10:10:55.800Z,12.640076
2019-05-11T10:11:56.183Z,12.680359
2019-05-11T10:12:56.755Z,12.871704
2019-05-11T10:14:56.872Z,12.952271
2019-05-11T10:16:00.610Z,13.012695
2019-05-11T10:17:35.877Z,13.19397
2019-05-11T10:18:36.254Z,13.224182
2019-05-11T10:19:37.588Z,13.385315
2019-05-11T10:20:36.957Z,13.435669
2019-05-11T10:21:36.189Z,13.455811
2019-05-11T10:22:36.134Z,13.385315
2019-05-11T10:23:25.660Z,13.334961
2019-05-11T10:24:25.963Z,13.254395
2019-05-11T10:25:36.845Z,13.224182
2019-05-11T10:26:36.127Z,13.234253
2019-05-11T10:27:25.751Z,13.19397
2019-05-11T10:28:36.600Z,13.143616
2019-05-11T10:29:36.068Z,13.042908
2019-05-11T10:30:36.176Z,13.032837
2019-05-11T10:32:26.556Z,13.002625
2019-05-11T10:33:25.849Z,12.932129
2019-05-11T10:34:26.109Z,12.932129
2019-05-11T10:36:36.170Z,12.922058
2019-05-11T10:38:46.253Z,12.831421
2019-05-11T10:40:45.647Z,12.82135
2019-05-11T10:41:45.700Z,12.861633
2019-05-11T10:42:56.579Z,12.851562
2019-05-11T10:43:55.794Z,12.861633
2019-05-11T10:45:06.644Z,12.901917
2019-05-11T10:46:16.836Z,12.962341
2019-05-11T10:47:05.957Z,13.113403
2019-05-11T10:49:16.215Z,13.153687
2019-05-11T10:50:16.397Z,13.204041
2019-05-11T10:51:05.959Z,13.32489
2019-05-11T10:51:56.320Z,13.334961
2019-05-11T10:52:56.654Z,13.375244
2019-05-11T10:54:45.531Z,13.385315
2019-05-11T10:55:45.634Z,13.415527
2019-05-11T10:56:45.875Z,13.44574
2019-05-11T10:57:36.238Z,13.44574
2019-05-11T10:58:35.625Z,13.475952
2019-05-11T10:59:46.605Z,13.375244
2019-05-11T11:00:45.773Z,13.385315
2019-05-11T11:01:56.644Z,13.415527
2019-05-11T11:02:55.973Z,13.506165
2019-05-11T11:05:55.827Z,13.506165
2019-05-11T11:06:56.766Z,13.455811
2019-05-11T11:07:35.922Z,13.475952
2019-05-11T11:08:36.025Z,13.506165
2019-05-11T11:09:46.792Z,13.516235
2019-05-11T11:10:46.107Z,13.435669
2019-05-11T11:13:56.300Z,13.375244
2019-05-11T11:16:06.206Z,13.44574
2019-05-11T11:17:16.807Z,13.44574
2019-05-11T11:18:16.475Z,13.385315
2019-05-11T11:20:06.164Z,13.173828
2019-05-11T11:21:06.341Z,13.123474
2019-05-11T11:21:55.777Z,13.07312
2019-05-11T11:23:06.471Z,13.012695
2019-05-11T11:24:05.492Z,12.972412
2019-05-11T11:26:16.164Z,12.851562
2019-05-11T11:27:26.942Z,12.770996
2019-05-11T11:28:25.947Z,12.640076
2019-05-11T11:29:36.575Z,12.559509
2019-05-11T11:30:35.618Z,12.559509
2019-05-11T11:31:35.784Z,12.56958
2019-05-11T11:32:36.052Z,12.589722
2019-05-11T11:33:46.520Z,12.56958
2019-05-11T11:34:46.403Z,12.559509
2019-05-11T11:35:45.573Z,12.56958
2019-05-11T11:37:56.268Z,12.559509
2019-05-11T11:38:56.155Z,12.56958
2019-05-11T11:39:55.971Z,12.56958
2019-05-11T11:41:56.274Z,12.539368
2019-05-11T11:42:45.612Z,12.529297
2019-05-11T11:43:56.507Z,12.499084
2019-05-11T11:44:56.528Z,12.44873
2019-05-11T11:45:55.714Z,12.388306
2019-05-11T11:47:06.450Z,12.348022
2019-05-11T11:48:06.315Z,12.348022
2019-05-11T11:49:06.144Z,12.348022
2019-05-11T11:51:16.437Z,12.458801
2019-05-11T11:53:16.618Z,12.539368
2019-05-11T11:54:15.844Z,12.56958
2019-05-11T11:55:26.688Z,12.619934
2019-05-11T11:57:16.049Z,12.680359
2019-05-11T11:59:26.203Z,12.770996
2019-05-11T12:00:26.374Z,12.82135
2019-05-11T12:01:25.677Z,12.851562
2019-05-11T12:02:36.441Z,12.932129
2019-05-11T12:03:25.583Z,12.972412
2019-05-11T12:04:36.563Z,13.042908
2019-05-11T12:06:46.813Z,13.103333
2019-05-11T12:07:46.777Z,13.123474
2019-05-11T12:08:46.922Z,13.103333
2019-05-11T12:09:46.022Z,13.042908
2019-05-11T12:10:56.733Z,13.042908
2019-05-11T12:11:55.719Z,13.052979
2019-05-11T12:13:06.364Z,13.032837
2019-05-11T12:14:06.377Z,13.052979
2019-05-11T12:16:05.475Z,13.042908
2019-05-11T12:17:08.511Z,13.012695
2019-05-11T12:18:16.334Z,13.032837
2019-05-11T12:20:26.332Z,13.042908
2019-05-11T12:21:25.551Z,13.052979
2019-05-11T12:22:36.410Z,13.052979
2019-05-11T12:23:35.705Z,13.07312
2019-05-11T12:25:38.174Z,13.032837
2019-05-11T12:27:46.597Z,12.972412
2019-05-11T12:28:46.567Z,12.962341
2019-05-11T12:29:45.629Z,12.962341
2019-05-11T12:30:45.868Z,13.012695
2019-05-11T12:31:56.738Z,13.083191
2019-05-11T12:33:56.443Z,13.143616
2019-05-11T12:34:56.612Z,13.153687
2019-05-11T12:35:56.551Z,13.153687
2019-05-11T12:37:56.543Z,13.264465
2019-05-11T12:38:55.878Z,13.284607
2019-05-11T12:41:45.721Z,13.254395
2019-05-11T12:42:56.745Z,13.254395
2019-05-11T12:45:56.584Z,13.294678
2019-05-11T12:46:56.004Z,13.355103
2019-05-11T12:48:06.702Z,13.415527
2019-05-11T12:49:56.616Z,13.486023
2019-05-11T12:50:56.674Z,13.536377
2019-05-11T12:51:55.956Z,13.586731
2019-05-11T12:52:56.582Z,13.596802
2019-05-11T12:54:56.258Z,13.667297
2019-05-11T12:55:56.664Z,13.727722
2019-05-11T12:57:45.514Z,13.788147
2019-05-11T12:58:46.839Z,13.818359
2019-05-11T12:59:35.983Z,13.838501
2019-05-11T13:01:46.358Z,13.788147
2019-05-11T13:03:46.799Z,13.848572
2019-05-11T13:05:46.218Z,13.919067
2019-05-11T13:06:45.743Z,13.959351
2019-05-11T13:07:36.866Z,13.999634
2019-05-11T13:08:36.753Z,14.019775
2019-05-11T13:09:35.966Z,14.029846
2019-05-11T13:10:35.485Z,14.039917
2019-05-11T13:11:35.828Z,14.039917
2019-05-11T13:12:46.896Z,14.060059
2019-05-11T13:13:46.180Z,14.090271
2019-05-11T13:15:56.339Z,14.090271
2019-05-11T13:16:56.618Z,14.070129
2019-05-11T13:17:55.845Z,14.070129
2019-05-11T13:19:56.515Z,14.140625
2019-05-11T13:20:56.584Z,14.120483
2019-05-11T13:21:56.726Z,14.150696
2019-05-11T13:22:46.516Z,14.170837
2019-05-11T13:24:56.474Z,14.180908
2019-05-11T13:25:56.352Z,14.180908
2019-05-11T13:26:57.435Z,14.20105
2019-05-11T13:27:46.891Z,14.221191
2019-05-11T13:28:46.072Z,14.221191
2019-05-11T13:29:56.909Z,14.20105
2019-05-11T13:30:55.811Z,14.211121
2019-05-11T13:31:56.868Z,14.211121
2019-05-11T13:33:56.216Z,14.251404
2019-05-11T13:35:06.868Z,14.281616
2019-05-11T13:35:55.738Z,14.321899
2019-05-11T13:37:56.179Z,14.352112
2019-05-11T13:38:56.570Z,14.352112
2019-05-11T13:39:55.765Z,14.352112
2019-05-11T13:40:56.751Z,14.372253
2019-05-11T13:41:55.917Z,14.392395
2019-05-11T13:42:55.916Z,14.372253
2019-05-11T13:43:55.597Z,14.362183
2019-05-11T13:44:56.221Z,14.362183
2019-05-11T13:45:56.277Z,14.372253
2019-05-11T13:46:56.454Z,14.372253
2019-05-11T13:47:52.361Z,14.392395
2019-05-11T13:49:35.683Z,14.422607
2019-05-11T13:51:26.406Z,14.402466
2019-05-11T13:52:26.458Z,14.45282
2019-05-11T13:53:25.498Z,14.472961
2019-05-11T13:54:27.629Z,14.513245
2019-05-11T13:55:16.043Z,14.513245
2019-05-11T13:56:05.724Z,14.523315
2019-05-11T13:57:05.783Z,14.513245
2019-05-11T13:58:16.614Z,14.503174
2019-05-11T13:59:08.359Z,14.462891
2019-05-11T13:59:45.668Z,14.472961
2019-05-11T14:02:46.262Z,14.553528
2019-05-11T14:03:46.027Z,14.573669
2019-05-11T14:04:45.869Z,14.553528
2019-05-11T14:06:35.684Z,14.58374
2019-05-11T14:07:35.888Z,14.603882
2019-05-11T14:09:46.369Z,14.644165
2019-05-11T14:11:36.619Z,14.613953
2019-05-11T14:13:26.343Z,14.613953
2019-05-11T14:14:26.474Z,14.624023
2019-05-11T14:15:25.751Z,14.624023
2019-05-11T14:16:25.483Z,14.613953
2019-05-11T14:17:25.641Z,14.613953
2019-05-11T14:18:36.342Z,14.624023
2019-05-11T14:20:26.644Z,14.624023
2019-05-11T14:22:15.707Z,14.573669
2019-05-11T14:23:28.976Z,14.553528
2019-05-11T14:24:26.456Z,14.553528
2019-05-11T14:25:25.628Z,14.543457
2019-05-11T14:26:36.254Z,14.553528
2019-05-11T14:28:35.490Z,14.523315
2019-05-11T14:29:36.207Z,14.543457
2019-05-11T14:31:36.239Z,14.513245
2019-05-11T14:33:36.394Z,14.513245
2019-05-11T14:35:46.758Z,14.462891
2019-05-11T14:36:45.850Z,14.462891
2019-05-11T14:37:56.630Z,14.422607
2019-05-11T14:38:55.751Z,14.392395
2019-05-11T14:39:56.176Z,14.372253
2019-05-11T14:43:06.223Z,14.352112
2019-05-11T14:45:16.385Z,14.321899
2019-05-11T14:46:15.771Z,14.321899
2019-05-11T14:47:15.666Z,14.362183
2019-05-11T14:48:27.504Z,14.372253
2019-05-11T14:49:25.515Z,14.372253
2019-05-11T14:50:36.344Z,14.392395
2019-05-11T14:51:36.584Z,14.352112
2019-05-11T14:52:36.314Z,14.321899
2019-05-11T14:53:35.516Z,14.271545
2019-05-11T14:54:46.398Z,14.251404
2019-05-11T14:55:46.392Z,14.241333
2019-05-11T14:56:35.596Z,14.251404
2019-05-11T14:58:46.898Z,14.251404
2019-05-11T14:59:46.083Z,14.271545
2019-05-11T15:02:46.118Z,14.271545
2019-05-11T15:03:56.681Z,14.271545
2019-05-11T15:04:46.099Z,14.271545
2019-05-11T15:05:35.491Z,14.281616
2019-05-11T15:06:46.832Z,14.281616
2019-05-11T15:09:35.693Z,14.291687
2019-05-11T15:10:46.583Z,14.321899
2019-05-11T15:11:45.866Z,14.291687
2019-05-11T15:12:56.848Z,14.321899
2019-05-11T15:14:57.036Z,14.321899
2019-05-11T15:16:46.515Z,14.352112
2019-05-11T15:17:46.649Z,14.352112
2019-05-11T15:19:46.678Z,14.352112
2019-05-11T15:20:45.793Z,14.362183
2019-05-11T15:22:46.527Z,14.362183
2019-05-11T15:24:46.202Z,14.402466
2019-05-11T15:25:46.597Z,14.402466
2019-05-11T15:26:46.476Z,14.402466
2019-05-11T15:27:46.351Z,14.422607
2019-05-11T15:28:46.327Z,14.432678
2019-05-11T15:29:35.760Z,14.432678
2019-05-11T15:30:35.857Z,14.45282
2019-05-11T15:31:35.861Z,14.45282
2019-05-11T15:32:35.521Z,14.45282
2019-05-11T15:33:46.472Z,14.432678
2019-05-11T15:34:46.472Z,14.45282
2019-05-11T15:35:35.498Z,14.45282
2019-05-11T15:36:36.349Z,14.45282
2019-05-11T15:38:46.018Z,14.422607
2019-05-11T15:39:56.785Z,14.392395
2019-05-11T15:40:55.886Z,14.372253
2019-05-11T15:42:07.175Z,14.372253
2019-05-11T15:42:56.318Z,14.372253
2019-05-11T15:43:45.701Z,14.362183
2019-05-11T15:44:56.568Z,14.362183
2019-05-11T15:45:55.792Z,14.321899
2019-05-11T15:47:05.516Z,14.321899
2019-05-11T15:48:16.495Z,14.321899
2019-05-11T15:49:26.024Z,14.321899
2019-05-11T15:50:26.780Z,14.281616
2019-05-11T15:51:26.880Z,14.281616
2019-05-11T15:54:36.373Z,14.281616
2019-05-11T15:55:36.072Z,14.281616
2019-05-11T15:57:45.940Z,14.271545
2019-05-11T15:59:06.152Z,14.281616
2019-05-11T16:01:26.762Z,14.281616
2019-05-11T16:02:26.822Z,14.291687
2019-05-11T16:04:25.896Z,14.352112
2019-05-11T16:05:26.454Z,14.352112
2019-05-11T16:07:46.687Z,14.372253
2019-05-11T16:08:35.478Z,14.392395
2019-05-11T16:09:46.382Z,14.392395
2019-05-11T16:10:46.645Z,14.402466
2019-05-11T16:11:45.756Z,14.402466
2019-05-11T16:13:06.778Z,14.402466
2019-05-11T16:14:05.910Z,14.402466
2019-05-11T16:15:16.736Z,14.402466
2019-05-11T16:15:55.627Z,14.392395
2019-05-11T16:19:25.933Z,14.362183
2019-05-11T16:20:26.470Z,14.352112
2019-05-11T16:21:35.740Z,14.33197
2019-05-11T16:24:05.545Z,14.33197
2019-05-11T16:25:25.850Z,14.33197
2019-05-11T16:26:25.945Z,14.321899
2019-05-11T16:27:35.578Z,14.33197
2019-05-11T16:28:55.985Z,14.321899
2019-05-11T16:31:06.833Z,14.352112
2019-05-11T16:32:06.123Z,14.352112
2019-05-11T16:33:15.746Z,14.362183
2019-05-11T16:34:36.055Z,14.372253
2019-05-11T16:35:46.750Z,14.372253
2019-05-11T16:36:45.763Z,14.402466
2019-05-11T16:37:56.777Z,14.402466
2019-05-11T16:38:46.242Z,14.422607
2019-05-11T16:39:56.066Z,14.422607
2019-05-11T16:41:06.844Z,14.462891
2019-05-11T16:42:06.231Z,14.503174
2019-05-11T16:43:16.847Z,14.503174
2019-05-11T16:44:16.193Z,14.503174
2019-05-11T16:45:25.846Z,14.503174
2019-05-11T16:46:36.622Z,14.503174
2019-05-11T16:47:36.872Z,14.472961
2019-05-11T16:48:36.053Z,14.472961
2019-05-11T16:49:36.179Z,14.472961
2019-05-11T16:50:36.229Z,14.462891
2019-05-11T16:52:56.352Z,14.45282
2019-05-11T16:55:15.990Z,14.422607
2019-05-11T16:57:15.470Z,14.362183
2019-05-11T16:58:25.583Z,14.362183
2019-05-11T16:59:15.884Z,14.352112
2019-05-11T17:02:16.584Z,14.281616
2019-05-11T17:02:55.500Z,14.271545
2019-05-11T17:03:55.538Z,14.241333
2019-05-11T17:05:05.476Z,14.221191
2019-05-11T17:06:17.473Z,14.211121
2019-05-11T17:08:16.468Z,14.211121
2019-05-11T17:09:15.856Z,14.20105
2019-05-11T17:10:26.388Z,14.20105
2019-05-11T17:11:26.786Z,14.180908
2019-05-11T17:12:26.526Z,14.20105
2019-05-11T17:13:15.777Z,14.211121
2019-05-11T17:14:25.903Z,14.211121
2019-05-11T17:16:35.714Z,14.221191
2019-05-11T17:17:25.618Z,14.221191
2019-05-11T17:18:25.830Z,14.221191
2019-05-11T17:19:43.458Z,14.20105
2019-05-11T17:20:25.602Z,14.20105
2019-05-11T17:21:35.518Z,14.211121
2019-05-11T17:22:45.627Z,14.180908
2019-05-11T17:23:55.726Z,14.180908
2019-05-11T17:25:16.465Z,14.170837
2019-05-11T17:26:16.652Z,14.170837
2019-05-11T17:28:07.526Z,14.140625
2019-05-11T17:29:16.417Z,14.120483
2019-05-11T17:30:16.705Z,14.100342
2019-05-11T17:31:16.067Z,14.100342
2019-05-11T17:32:26.971Z,14.070129
2019-05-11T17:33:15.757Z,14.060059
2019-05-11T17:34:26.320Z,14.029846
2019-05-11T17:35:15.547Z,14.019775
2019-05-11T17:37:46.101Z,13.969421
2019-05-11T17:38:56.000Z,13.959351
2019-05-11T17:40:06.761Z,13.94928
2019-05-11T17:41:06.199Z,13.919067
2019-05-11T17:42:15.917Z,13.888855
2019-05-11T17:43:15.842Z,13.888855
2019-05-11T17:44:16.276Z,13.868713
2019-05-11T17:46:36.033Z,13.848572
2019-05-11T17:49:57.201Z,13.788147
2019-05-11T17:50:36.176Z,13.788147
2019-05-11T17:51:46.267Z,13.788147
2019-05-11T17:52:45.684Z,13.788147
2019-05-11T17:54:45.536Z,13.778076
2019-05-11T17:55:55.505Z,13.768005
2019-05-11T17:58:15.758Z,13.707581
2019-05-11T17:59:55.637Z,13.69751
2019-05-11T18:01:25.629Z,13.687439
2019-05-11T18:02:26.324Z,13.667297
2019-05-11T18:03:08.183Z,13.637085
2019-05-11T18:05:15.524Z,13.627014
2019-05-11T18:06:16.198Z,13.616943
2019-05-11T18:07:36.241Z,13.596802
2019-05-11T18:10:26.152Z,13.586731
2019-05-11T18:11:27.780Z,13.546448
2019-05-11T18:12:07.663Z,13.546448
2019-05-11T18:12:55.562Z,13.546448
2019-05-11T18:14:05.907Z,13.536377
2019-05-11T18:15:16.110Z,13.536377
2019-05-11T18:17:15.512Z,13.486023
2019-05-11T18:18:26.597Z,13.486023
2019-05-11T18:19:25.621Z,13.486023
2019-05-11T18:20:46.374Z,13.455811
2019-05-11T18:21:46.537Z,13.455811
2019-05-11T18:22:46.758Z,13.455811
2019-05-11T18:23:45.837Z,13.435669
2019-05-11T18:24:46.695Z,13.435669
2019-05-11T18:25:45.854Z,13.415527
2019-05-11T18:26:56.815Z,13.385315
2019-05-11T18:27:56.116Z,13.385315
2019-05-11T18:30:06.469Z,13.355103
2019-05-11T18:30:56.038Z,13.355103
2019-05-11T18:33:16.441Z,13.304749
2019-05-11T18:34:15.743Z,13.304749
2019-05-11T18:35:25.754Z,13.284607
2019-05-11T18:36:46.447Z,13.264465
2019-05-11T18:37:45.655Z,13.254395
2019-05-11T18:39:56.482Z,13.224182
2019-05-11T18:40:55.604Z,13.19397
2019-05-11T18:42:16.325Z,13.153687
2019-05-11T18:43:16.623Z,13.143616
2019-05-11T18:44:16.487Z,13.113403
2019-05-11T18:45:16.604Z,13.113403
2019-05-11T18:46:06.174Z,13.103333
2019-05-11T18:47:06.516Z,13.083191
2019-05-11T18:54:16.781Z,12.952271
2019-05-11T18:55:16.584Z,12.932129
2019-05-11T18:55:56.747Z,12.901917
2019-05-11T18:56:56.831Z,12.922058
2019-05-11T18:57:55.988Z,12.891846
2019-05-11T18:59:06.457Z,12.861633
2019-05-11T18:59:56.566Z,12.851562
2019-05-11T19:02:05.830Z,12.82135
2019-05-11T19:03:16.742Z,12.791138
2019-05-11T19:04:56.037Z,12.781067
2019-05-11T19:05:45.731Z,12.781067
2019-05-11T19:07:56.278Z,12.750854
2019-05-11T19:08:56.047Z,12.710571
2019-05-11T19:10:06.162Z,12.680359
2019-05-11T19:11:06.977Z,12.670288
2019-05-11T19:12:06.197Z,12.640076
2019-05-11T19:14:06.207Z,12.589722
2019-05-11T19:15:16.107Z,12.56958
2019-05-11T19:16:06.370Z,12.539368
2019-05-11T19:17:55.674Z,12.519226
2019-05-11T19:19:16.136Z,12.499084
2019-05-11T19:20:26.039Z,12.499084
2019-05-11T19:24:16.665Z,12.458801
2019-05-11T19:25:15.825Z,12.44873
2019-05-11T19:26:15.541Z,12.44873
2019-05-11T19:28:36.307Z,12.378235
2019-05-11T19:29:46.235Z,12.368164
2019-05-11T19:30:56.856Z,12.348022
2019-05-11T19:31:55.988Z,12.337952
2019-05-11T19:32:56.782Z,12.307739
2019-05-11T19:33:55.859Z,12.267456
2019-05-11T19:35:06.588Z,12.237244
2019-05-11T19:36:05.779Z,12.227173
2019-05-11T19:37:16.648Z,12.19696
2019-05-11T19:38:16.720Z,12.18689
2019-05-11T19:39:17.062Z,12.156677
2019-05-11T19:41:25.578Z,12.096252
2019-05-11T19:42:35.624Z,12.096252
2019-05-11T19:43:46.483Z,12.096252
2019-05-11T19:44:45.712Z,12.096252
2019-05-11T19:46:06.421Z,12.086182
2019-05-11T19:47:06.565Z,12.06604
2019-05-11T19:48:06.077Z,12.035828
2019-05-11T19:49:16.722Z,12.015686
2019-05-11T19:51:26.894Z,12.005615
2019-05-11T19:52:26.085Z,11.975403
2019-05-11T19:53:36.399Z,11.94519
2019-05-11T19:54:26.790Z,11.93512
2019-05-11T19:55:26.395Z,11.914978
2019-05-11T19:56:35.957Z,11.914978
2019-05-11T19:57:45.909Z,11.904907
2019-05-11T19:59:06.352Z,11.914978
2019-05-11T20:00:15.974Z,11.914978
2019-05-11T20:01:25.769Z,11.884766
2019-05-11T20:02:36.696Z,11.884766
2019-05-11T20:03:35.694Z,11.864624
2019-05-11T20:04:56.415Z,11.824341
2019-05-11T20:06:06.252Z,11.804199
2019-05-11T20:07:15.801Z,11.763916
2019-05-11T20:11:55.990Z,11.703491
2019-05-11T20:13:05.672Z,11.653137
2019-05-11T20:14:05.845Z,11.643066
2019-05-11T20:15:16.243Z,11.622925
2019-05-11T20:17:36.812Z,11.552429
2019-05-11T20:19:46.805Z,11.552429
2019-05-11T20:20:45.913Z,11.542358
2019-05-11T20:21:55.658Z,11.542358
2019-05-11T20:23:05.533Z,11.522217
2019-05-11T20:24:25.907Z,11.512146
2019-05-11T20:25:35.685Z,11.512146
2019-05-11T20:26:35.660Z,11.492004
2019-05-11T20:27:56.428Z,11.492004
2019-05-11T20:29:05.887Z,11.492004
2019-05-11T20:30:15.691Z,11.44165
2019-05-11T20:32:45.646Z,11.371155
2019-05-11T20:33:45.627Z,11.361084
2019-05-11T20:35:06.221Z,11.330872
2019-05-11T20:36:15.625Z,11.320801
2019-05-11T20:37:35.908Z,11.290588
2019-05-11T20:38:45.526Z,11.280518
2019-05-11T20:40:07.055Z,11.280518
2019-05-11T20:41:06.066Z,11.270447
2019-05-11T20:42:15.865Z,11.270447
2019-05-11T20:43:25.678Z,11.270447
2019-05-11T20:44:35.483Z,11.220093
2019-05-11T20:45:46.142Z,11.210022
2019-05-11T20:46:55.814Z,11.18988
2019-05-11T20:47:46.196Z,11.17981
2019-05-11T20:48:55.756Z,11.149597
2019-05-11T20:50:16.046Z,11.109314
2019-05-11T20:51:33.894Z,11.099243
2019-05-11T20:52:36.539Z,11.089172
2019-05-11T20:53:36.552Z,11.069031
2019-05-11T20:54:36.455Z,11.05896
2019-05-11T20:55:35.558Z,11.038818
2019-05-11T20:56:36.571Z,11.018677
2019-05-11T20:57:36.639Z,10.998535
2019-05-11T20:58:36.765Z,10.968323
2019-05-11T20:59:36.068Z,10.958252
2019-05-11T21:02:06.938Z,10.93811
2019-05-11T21:03:05.802Z,10.917969
2019-05-11T21:04:16.611Z,10.907898
2019-05-11T21:05:15.794Z,10.877686
2019-05-11T21:07:36.337Z,10.817261
2019-05-11T21:08:45.785Z,10.80719
2019-05-11T21:10:06.171Z,10.80719
2019-05-11T21:11:15.825Z,10.817261
2019-05-11T21:12:35.904Z,10.787048
2019-05-11T21:13:45.829Z,10.776978
2019-05-11T21:14:55.574Z,10.756836
2019-05-11T21:17:15.655Z,10.726624
2019-05-11T21:18:35.925Z,10.726624
2019-05-11T21:19:45.868Z,10.706482
2019-05-11T21:20:55.502Z,10.666199
2019-05-11T21:23:26.757Z,10.656128
2019-05-11T21:24:25.907Z,10.656128
2019-05-11T21:25:35.648Z,10.635986
2019-05-11T21:26:56.246Z,10.595703
2019-05-11T21:28:06.214Z,10.625916
2019-05-11T21:29:16.592Z,10.625916
2019-05-11T21:30:16.180Z,10.625916
2019-05-11T21:31:26.633Z,10.595703
2019-05-11T21:32:25.790Z,10.605774
2019-05-11T21:33:35.593Z,10.55542
2019-05-11T21:34:46.479Z,10.585632
2019-05-11T21:35:46.789Z,10.545349
2019-05-11T21:36:46.153Z,10.545349
2019-05-11T21:37:55.778Z,10.545349
2019-05-11T21:39:05.682Z,10.515137
2019-05-11T21:40:06.112Z,10.505066
2019-05-11T21:41:06.413Z,10.474854
2019-05-11T21:42:16.038Z,10.474854
2019-05-11T21:44:25.750Z,10.404358
2019-05-11T21:45:38.183Z,10.384216
2019-05-11T21:47:55.617Z,10.343933
2019-05-11T21:49:16.198Z,10.333862
2019-05-11T21:50:25.699Z,10.333862
2019-05-11T21:51:46.013Z,10.30365
2019-05-11T21:52:56.794Z,10.333862
2019-05-11T21:53:55.616Z,10.323792
2019-05-11T21:56:26.685Z,10.273438
2019-05-11T21:57:25.734Z,10.273438
2019-05-11T21:58:35.613Z,10.253296
2019-05-11T21:59:46.414Z,10.253296
2019-05-11T22:00:45.754Z,10.223083
2019-05-11T22:02:46.482Z,10.1828
2019-05-11T22:03:57.205Z,10.142517
2019-05-11T22:04:56.542Z,10.152588
2019-05-11T22:06:06.382Z,10.122375
2019-05-11T22:07:05.551Z,10.112305
2019-05-11T22:08:26.227Z,10.112305
2019-05-11T22:09:36.210Z,10.112305
2019-05-11T22:10:36.282Z,10.092163
2019-05-11T22:11:46.464Z,10.082092
2019-05-11T22:14:06.019Z,10.072021
2019-05-11T22:16:06.310Z,10.05188